sensor_id;sensor_type;location;lat;lon;timestamp;P1;durP1;ratioP1;P2;durP2;ratioP2
68144;SDS011;55400;51.824;-0.196;2023-11-21T00:00:44;2.10;;;1.90;;
68144;SDS011;55400;51.824;-0.196;2023-11-21T00:04:44;2.60;;;1.80;;
68144;SDS011;55400;51.824;-0.196;2023-11-21T00:08:44;2.40;;;2.10;;
68144;SDS011;55400;51.824;-0.196;2023-11-21T00:12:44;2.00;;;1.90;;
68144;SDS011;55400;51.824;-0.196;2023-11-21T00:16:44;2.50;;;2.30;;
68144;SDS011;55400;51.824;-0.196;2023-11-21T00:20:44;2.50;;;2.20;;
68144;SDS011;55400;51.824;-0.196;2023-11-21T00:24:44;2.50;;;2.30;;
68144;SDS011;55400;51.824;-0.196;2023-11-21T00:28:44;2.20;;;2.00;;
68144;SDS011;55400;51.824;-0.196;2023-11-21T00:32:44;2.20;;;2.00;;
68144;SDS011;55400;51.824;-0.196;2023-11-21T00:36:44;2.50;;;2.00;;
68144;SDS011;55400;51.824;-0.196;2023-11-21T00:40:44;2.20;;;2.00;;
68144;SDS011;55400;51.824;-0.196;2023-11-21T00:44:44;2.10;;;1.90;;
68144;SDS011;55400;51.824;-0.196;2023-11-21T00:52:44;2.50;;;2.30;;
68144;SDS011;55400;51.824;-0.196;2023-11-21T00:56:44;2.50;;;2.20;;
68144;SDS011;55400;51.824;-0.196;2023-11-21T01:00:44;2.20;;;2.00;;
68144;SDS011;55400;51.824;-0.196;2023-11-21T01:04:44;2.50;;;2.30;;
68144;SDS011;55400;51.824;-0.196;2023-11-21T01:12:44;2.70;;;2.40;;
68144;SDS011;55400;51.824;-0.196;2023-11-21T01:16:50;2.60;;;2.30;;
68144;SDS011;55400;51.824;-0.196;2023-11-21T01:24:44;2.50;;;2.20;;
68144;SDS011;55400;51.824;-0.196;2023-11-21T01:28:44;2.50;;;2.30;;
68144;SDS011;55400;51.824;-0.196;2023-11-21T01:32:44;2.80;;;2.20;;
68144;SDS011;55400;51.824;-0.196;2023-11-21T01:36:45;1.60;;;1.50;;
68144;SDS011;55400;51.824;-0.196;2023-11-21T01:40:44;1.70;;;1.60;;
68144;SDS011;55400;51.824;-0.196;2023-11-21T01:44:44;1.50;;;1.40;;
68144;SDS011;55400;51.824;-0.196;2023-11-21T01:48:44;1.60;;;1.50;;
68144;SDS011;55400;51.824;-0.196;2023-11-21T01:52:46;1.50;;;1.40;;
68144;SDS011;55400;51.824;-0.196;2023-11-21T01:56:45;1.40;;;1.30;;
68144;SDS011;55400;51.824;-0.196;2023-11-21T02:00:44;1.20;;;1.10;;
68144;SDS011;55400;51.824;-0.196;2023-11-21T02:04:44;1.00;;;1.00;;
68144;SDS011;55400;51.824;-0.196;2023-11-21T02:08:44;1.90;;;1.20;;
68144;SDS011;55400;51.824;-0.196;2023-11-21T02:12:44;1.00;;;1.00;;
68144;SDS011;55400;51.824;-0.196;2023-11-21T02:16:44;1.70;;;1.00;;
68144;SDS011;55400;51.824;-0.196;2023-11-21T02:20:44;1.20;;;1.10;;
68144;SDS011;55400;51.824;-0.196;2023-11-21T02:24:45;0.90;;;0.90;;
68144;SDS011;55400;51.824;-0.196;2023-11-21T02:32:44;1.10;;;1.00;;
68144;SDS011;55400;51.824;-0.196;2023-11-21T02:36:44;1.30;;;1.20;;
68144;SDS011;55400;51.824;-0.196;2023-11-21T02:44:44;2.40;;;1.50;;
68144;SDS011;55400;51.824;-0.196;2023-11-21T02:48:44;1.40;;;1.30;;
68144;SDS011;55400;51.824;-0.196;2023-11-21T02:52:44;1.60;;;1.00;;
68144;SDS011;55400;51.824;-0.196;2023-11-21T02:56:44;1.30;;;1.10;;
68144;SDS011;55400;51.824;-0.196;2023-11-21T03:03:04;1.10;;;0.70;;
68144;SDS011;55400;51.824;-0.196;2023-11-21T03:08:45;1.20;;;1.10;;
68144;SDS011;55400;51.824;-0.196;2023-11-21T03:12:44;1.00;;;1.00;;
68144;SDS011;55400;51.824;-0.196;2023-11-21T03:20:45;1.10;;;1.00;;
68144;SDS011;55400;51.824;-0.196;2023-11-21T03:24:44;1.10;;;1.00;;
68144;SDS011;55400;51.824;-0.196;2023-11-21T03:28:44;1.80;;;1.00;;
68144;SDS011;55400;51.824;-0.196;2023-11-21T03:32:44;1.00;;;0.90;;
68144;SDS011;55400;51.824;-0.196;2023-11-21T03:36:44;0.90;;;0.80;;
68144;SDS011;55400;51.824;-0.196;2023-11-21T03:40:44;1.50;;;0.80;;
68144;SDS011;55400;51.824;-0.196;2023-11-21T03:44:45;1.10;;;0.90;;
68144;SDS011;55400;51.824;-0.196;2023-11-21T03:48:44;1.90;;;0.80;;
68144;SDS011;55400;51.824;-0.196;2023-11-21T03:52:44;3.40;;;0.90;;
68144;SDS011;55400;51.824;-0.196;2023-11-21T03:56:44;1.10;;;0.80;;
68144;SDS011;55400;51.824;-0.196;2023-11-21T04:00:45;1.10;;;1.00;;
68144;SDS011;55400;51.824;-0.196;2023-11-21T04:04:44;2.10;;;1.20;;
68144;SDS011;55400;51.824;-0.196;2023-11-21T04:08:45;3.10;;;1.10;;
68144;SDS011;55400;51.824;-0.196;2023-11-21T04:16:45;2.20;;;1.00;;
68144;SDS011;55400;51.824;-0.196;2023-11-21T04:20:44;1.40;;;1.10;;
68144;SDS011;55400;51.824;-0.196;2023-11-21T04:24:45;1.40;;;1.00;;
68144;SDS011;55400;51.824;-0.196;2023-11-21T04:28:44;1.10;;;1.00;;
68144;SDS011;55400;51.824;-0.196;2023-11-21T04:32:45;1.80;;;1.20;;
68144;SDS011;55400;51.824;-0.196;2023-11-21T04:36:45;1.40;;;0.90;;
68144;SDS011;55400;51.824;-0.196;2023-11-21T04:40:44;1.50;;;0.90;;
68144;SDS011;55400;51.824;-0.196;2023-11-21T04:44:44;1.40;;;0.90;;
68144;SDS011;55400;51.824;-0.196;2023-11-21T04:48:45;1.90;;;1.10;;
68144;SDS011;55400;51.824;-0.196;2023-11-21T04:52:44;1.60;;;0.70;;
68144;SDS011;55400;51.824;-0.196;2023-11-21T04:56:45;1.80;;;1.00;;
68144;SDS011;55400;51.824;-0.196;2023-11-21T05:08:45;1.70;;;0.90;;
68144;SDS011;55400;51.824;-0.196;2023-11-21T05:12:45;0.80;;;0.70;;
68144;SDS011;55400;51.824;-0.196;2023-11-21T05:16:46;1.40;;;0.90;;
68144;SDS011;55400;51.824;-0.196;2023-11-21T05:20:45;1.90;;;1.00;;
68144;SDS011;55400;51.824;-0.196;2023-11-21T05:24:45;1.50;;;0.80;;
68144;SDS011;55400;51.824;-0.196;2023-11-21T05:32:45;1.60;;;0.70;;
68144;SDS011;55400;51.824;-0.196;2023-11-21T05:36:45;2.40;;;1.00;;
68144;SDS011;55400;51.824;-0.196;2023-11-21T05:44:45;0.90;;;0.70;;
68144;SDS011;55400;51.824;-0.196;2023-11-21T05:48:45;1.40;;;0.70;;
68144;SDS011;55400;51.824;-0.196;2023-11-21T05:52:46;2.00;;;0.70;;
68144;SDS011;55400;51.824;-0.196;2023-11-21T05:56:45;1.80;;;0.70;;
68144;SDS011;55400;51.824;-0.196;2023-11-21T06:00:45;1.40;;;0.80;;
68144;SDS011;55400;51.824;-0.196;2023-11-21T06:04:45;1.40;;;0.80;;
68144;SDS011;55400;51.824;-0.196;2023-11-21T06:08:45;1.80;;;0.80;;
68144;SDS011;55400;51.824;-0.196;2023-11-21T06:12:45;0.60;;;0.50;;
68144;SDS011;55400;51.824;-0.196;2023-11-21T06:20:45;1.50;;;0.80;;
68144;SDS011;55400;51.824;-0.196;2023-11-21T06:24:45;1.80;;;0.80;;
68144;SDS011;55400;51.824;-0.196;2023-11-21T06:28:45;1.10;;;0.80;;
68144;SDS011;55400;51.824;-0.196;2023-11-21T06:32:45;2.90;;;0.80;;
68144;SDS011;55400;51.824;-0.196;2023-11-21T06:36:45;1.90;;;1.00;;
68144;SDS011;55400;51.824;-0.196;2023-11-21T06:40:45;1.40;;;0.80;;
68144;SDS011;55400;51.824;-0.196;2023-11-21T06:44:45;3.40;;;0.80;;
68144;SDS011;55400;51.824;-0.196;2023-11-21T06:48:45;1.00;;;0.80;;
68144;SDS011;55400;51.824;-0.196;2023-11-21T06:52:45;3.30;;;1.10;;
68144;SDS011;55400;51.824;-0.196;2023-11-21T06:56:45;1.70;;;1.10;;
68144;SDS011;55400;51.824;-0.196;2023-11-21T07:00:45;2.00;;;1.20;;
68144;SDS011;55400;51.824;-0.196;2023-11-21T07:04:45;2.80;;;1.20;;
68144;SDS011;55400;51.824;-0.196;2023-11-21T07:08:45;1.30;;;1.10;;
68144;SDS011;55400;51.824;-0.196;2023-11-21T07:12:45;1.30;;;1.20;;
68144;SDS011;55400;51.824;-0.196;2023-11-21T07:16:46;2.20;;;1.30;;
68144;SDS011;55400;51.824;-0.196;2023-11-21T07:20:45;1.50;;;1.10;;
68144;SDS011;55400;51.824;-0.196;2023-11-21T07:24:45;2.00;;;1.50;;
68144;SDS011;55400;51.824;-0.196;2023-11-21T07:28:45;2.40;;;1.20;;
68144;SDS011;55400;51.824;-0.196;2023-11-21T07:32:45;3.10;;;1.40;;
68144;SDS011;55400;51.824;-0.196;2023-11-21T07:36:45;3.20;;;1.50;;
68144;SDS011;55400;51.824;-0.196;2023-11-21T07:40:45;1.20;;;1.00;;
68144;SDS011;55400;51.824;-0.196;2023-11-21T07:48:45;1.20;;;1.00;;
68144;SDS011;55400;51.824;-0.196;2023-11-21T07:52:45;1.70;;;1.30;;
68144;SDS011;55400;51.824;-0.196;2023-11-21T07:56:45;1.80;;;1.00;;
68144;SDS011;55400;51.824;-0.196;2023-11-21T08:00:45;1.90;;;1.10;;
68144;SDS011;55400;51.824;-0.196;2023-11-21T08:04:45;2.20;;;1.00;;
68144;SDS011;55400;51.824;-0.196;2023-11-21T08:08:45;1.80;;;0.80;;
68144;SDS011;55400;51.824;-0.196;2023-11-21T08:16:45;0.80;;;0.80;;
68144;SDS011;55400;51.824;-0.196;2023-11-21T08:28:45;3.30;;;2.50;;
68144;SDS011;55400;51.824;-0.196;2023-11-21T08:32:45;2.80;;;1.80;;
68144;SDS011;55400;51.824;-0.196;2023-11-21T08:40:45;3.20;;;1.80;;
68144;SDS011;55400;51.824;-0.196;2023-11-21T08:48:45;3.00;;;1.60;;
68144;SDS011;55400;51.824;-0.196;2023-11-21T08:52:46;2.50;;;2.00;;
68144;SDS011;55400;51.824;-0.196;2023-11-21T08:56:45;1.90;;;1.40;;
68144;SDS011;55400;51.824;-0.196;2023-11-21T09:00:45;2.00;;;1.30;;
68144;SDS011;55400;51.824;-0.196;2023-11-21T09:04:45;1.70;;;1.20;;
68144;SDS011;55400;51.824;-0.196;2023-11-21T09:08:45;1.90;;;1.20;;
68144;SDS011;55400;51.824;-0.196;2023-11-21T09:12:45;1.80;;;1.10;;
68144;SDS011;55400;51.824;-0.196;2023-11-21T09:16:45;1.70;;;0.90;;
68144;SDS011;55400;51.824;-0.196;2023-11-21T09:20:45;1.50;;;0.80;;
68144;SDS011;55400;51.824;-0.196;2023-11-21T09:24:45;1.20;;;0.90;;
68144;SDS011;55400;51.824;-0.196;2023-11-21T09:28:45;1.10;;;0.90;;
68144;SDS011;55400;51.824;-0.196;2023-11-21T09:32:45;1.00;;;0.80;;
68144;SDS011;55400;51.824;-0.196;2023-11-21T09:40:46;1.20;;;0.70;;
68144;SDS011;55400;51.824;-0.196;2023-11-21T09:44:48;1.00;;;0.60;;
68144;SDS011;55400;51.824;-0.196;2023-11-21T09:52:52;1.10;;;1.00;;
68144;SDS011;55400;51.824;-0.196;2023-11-21T09:56:45;0.70;;;0.70;;
68144;SDS011;55400;51.824;-0.196;2023-11-21T10:00:47;0.60;;;0.50;;
68144;SDS011;55400;51.824;-0.196;2023-11-21T10:04:46;0.90;;;0.60;;
68144;SDS011;55400;51.824;-0.196;2023-11-21T10:08:46;0.50;;;0.50;;
68144;SDS011;55400;51.824;-0.196;2023-11-21T10:12:48;1.80;;;1.30;;
68144;SDS011;55400;51.824;-0.196;2023-11-21T10:20:46;0.40;;;0.40;;
68144;SDS011;55400;51.824;-0.196;2023-11-21T10:24:46;1.30;;;0.70;;
68144;SDS011;55400;51.824;-0.196;2023-11-21T10:28:55;0.60;;;0.50;;
68144;SDS011;55400;51.824;-0.196;2023-11-21T10:32:46;0.50;;;0.50;;
68144;SDS011;55400;51.824;-0.196;2023-11-21T10:40:46;0.50;;;0.50;;
68144;SDS011;55400;51.824;-0.196;2023-11-21T10:44:46;0.40;;;0.40;;
68144;SDS011;55400;51.824;-0.196;2023-11-21T10:48:56;0.70;;;0.60;;
68144;SDS011;55400;51.824;-0.196;2023-11-21T10:52:45;5.50;;;1.50;;
68144;SDS011;55400;51.824;-0.196;2023-11-21T10:56:48;0.60;;;0.60;;
68144;SDS011;55400;51.824;-0.196;2023-11-21T11:00:46;0.50;;;0.50;;
68144;SDS011;55400;51.824;-0.196;2023-11-21T11:04:47;1.80;;;0.70;;
68144;SDS011;55400;51.824;-0.196;2023-11-21T11:08:47;0.50;;;0.50;;
68144;SDS011;55400;51.824;-0.196;2023-11-21T11:12:47;2.70;;;0.80;;
68144;SDS011;55400;51.824;-0.196;2023-11-21T11:16:46;2.90;;;1.00;;
68144;SDS011;55400;51.824;-0.196;2023-11-21T11:20:18;1.00;;;1.00;;
68144;SDS011;55400;51.824;-0.196;2023-11-21T11:20:47;1.00;;;1.00;;
68144;SDS011;55400;51.824;-0.196;2023-11-21T11:24:57;1.50;;;1.20;;
68144;SDS011;55400;51.824;-0.196;2023-11-21T11:28:51;1.20;;;1.00;;
68144;SDS011;55400;51.824;-0.196;2023-11-21T11:32:51;1.50;;;1.30;;
68144;SDS011;55400;51.824;-0.196;2023-11-21T11:36:49;1.20;;;1.20;;
68144;SDS011;55400;51.824;-0.196;2023-11-21T11:40:46;2.70;;;1.40;;
68144;SDS011;55400;51.824;-0.196;2023-11-21T11:44:48;1.30;;;1.20;;
68144;SDS011;55400;51.824;-0.196;2023-11-21T11:48:46;1.20;;;1.10;;
68144;SDS011;55400;51.824;-0.196;2023-11-21T11:52:47;1.00;;;1.00;;
68144;SDS011;55400;51.824;-0.196;2023-11-21T11:56:47;1.10;;;0.60;;
68144;SDS011;55400;51.824;-0.196;2023-11-21T12:00:49;0.80;;;0.70;;
68144;SDS011;55400;51.824;-0.196;2023-11-21T12:04:46;1.20;;;0.60;;
68144;SDS011;55400;51.824;-0.196;2023-11-21T12:08:46;0.40;;;0.40;;
68144;SDS011;55400;51.824;-0.196;2023-11-21T12:12:47;0.40;;;0.40;;
68144;SDS011;55400;51.824;-0.196;2023-11-21T12:16:46;0.40;;;0.40;;
68144;SDS011;55400;51.824;-0.196;2023-11-21T12:20:46;1.60;;;0.60;;
68144;SDS011;55400;51.824;-0.196;2023-11-21T12:24:46;0.70;;;0.40;;
68144;SDS011;55400;51.824;-0.196;2023-11-21T12:32:48;1.10;;;0.40;;
68144;SDS011;55400;51.824;-0.196;2023-11-21T12:36:46;1.00;;;0.40;;
68144;SDS011;55400;51.824;-0.196;2023-11-21T12:40:46;1.50;;;0.40;;
68144;SDS011;55400;51.824;-0.196;2023-11-21T12:44:46;1.00;;;0.60;;
68144;SDS011;55400;51.824;-0.196;2023-11-21T12:48:51;1.20;;;0.50;;
68144;SDS011;55400;51.824;-0.196;2023-11-21T12:52:46;0.60;;;0.40;;
68144;SDS011;55400;51.824;-0.196;2023-11-21T12:56:46;1.80;;;0.50;;
68144;SDS011;55400;51.824;-0.196;2023-11-21T13:00:48;3.00;;;0.60;;
68144;SDS011;55400;51.824;-0.196;2023-11-21T13:04:51;1.90;;;0.60;;
68144;SDS011;55400;51.824;-0.196;2023-11-21T13:08:46;0.90;;;0.50;;
68144;SDS011;55400;51.824;-0.196;2023-11-21T13:12:46;1.00;;;0.70;;
68144;SDS011;55400;51.824;-0.196;2023-11-21T13:16:46;2.20;;;1.20;;
68144;SDS011;55400;51.824;-0.196;2023-11-21T13:20:57;1.10;;;0.60;;
68144;SDS011;55400;51.824;-0.196;2023-11-21T13:24:46;2.80;;;0.90;;
68144;SDS011;55400;51.824;-0.196;2023-11-21T13:28:46;2.80;;;0.80;;
68144;SDS011;55400;51.824;-0.196;2023-11-21T13:32:46;6.00;;;1.30;;
68144;SDS011;55400;51.824;-0.196;2023-11-21T13:36:46;4.30;;;1.40;;
68144;SDS011;55400;51.824;-0.196;2023-11-21T13:40:48;6.60;;;1.40;;
68144;SDS011;55400;51.824;-0.196;2023-11-21T13:44:46;5.50;;;1.40;;
68144;SDS011;55400;51.824;-0.196;2023-11-21T13:48:46;4.00;;;1.40;;
68144;SDS011;55400;51.824;-0.196;2023-11-21T13:52:46;7.30;;;1.40;;
68144;SDS011;55400;51.824;-0.196;2023-11-21T13:56:46;4.00;;;1.40;;
68144;SDS011;55400;51.824;-0.196;2023-11-21T14:00:46;4.80;;;1.30;;
68144;SDS011;55400;51.824;-0.196;2023-11-21T14:04:46;4.80;;;1.40;;
68144;SDS011;55400;51.824;-0.196;2023-11-21T14:12:46;3.90;;;1.40;;
68144;SDS011;55400;51.824;-0.196;2023-11-21T14:16:46;6.00;;;1.40;;
68144;SDS011;55400;51.824;-0.196;2023-11-21T14:20:46;2.70;;;1.30;;
68144;SDS011;55400;51.824;-0.196;2023-11-21T14:24:46;3.90;;;1.40;;
68144;SDS011;55400;51.824;-0.196;2023-11-21T14:28:46;6.00;;;1.40;;
68144;SDS011;55400;51.824;-0.196;2023-11-21T14:36:46;6.40;;;1.50;;
68144;SDS011;55400;51.824;-0.196;2023-11-21T14:40:46;4.00;;;1.50;;
68144;SDS011;55400;51.824;-0.196;2023-11-21T14:44:46;5.90;;;1.60;;
68144;SDS011;55400;51.824;-0.196;2023-11-21T14:48:46;3.80;;;1.30;;
68144;SDS011;55400;51.824;-0.196;2023-11-21T14:52:46;7.40;;;1.60;;
68144;SDS011;55400;51.824;-0.196;2023-11-21T14:56:46;5.40;;;1.40;;
68144;SDS011;55400;51.824;-0.196;2023-11-21T15:00:46;6.90;;;1.80;;
68144;SDS011;55400;51.824;-0.196;2023-11-21T15:04:46;3.60;;;1.10;;
68144;SDS011;55400;51.824;-0.196;2023-11-21T15:08:49;5.40;;;1.50;;
68144;SDS011;55400;51.824;-0.196;2023-11-21T15:12:46;5.00;;;1.50;;
68144;SDS011;55400;51.824;-0.196;2023-11-21T15:16:46;4.60;;;1.40;;
68144;SDS011;55400;51.824;-0.196;2023-11-21T15:20:46;7.40;;;1.90;;
68144;SDS011;55400;51.824;-0.196;2023-11-21T15:24:46;7.30;;;1.70;;
68144;SDS011;55400;51.824;-0.196;2023-11-21T15:28:46;5.80;;;1.40;;
68144;SDS011;55400;51.824;-0.196;2023-11-21T15:32:46;6.50;;;2.00;;
68144;SDS011;55400;51.824;-0.196;2023-11-21T15:36:46;5.40;;;1.60;;
68144;SDS011;55400;51.824;-0.196;2023-11-21T15:40:47;5.50;;;1.50;;
68144;SDS011;55400;51.824;-0.196;2023-11-21T15:44:46;8.00;;;2.80;;
68144;SDS011;55400;51.824;-0.196;2023-11-21T15:48:47;11.10;;;4.00;;
68144;SDS011;55400;51.824;-0.196;2023-11-21T15:53:13;7.40;;;2.70;;
68144;SDS011;55400;51.824;-0.196;2023-11-21T15:56:47;3.80;;;1.90;;
68144;SDS011;55400;51.824;-0.196;2023-11-21T16:00:46;4.90;;;1.60;;
68144;SDS011;55400;51.824;-0.196;2023-11-21T16:04:46;4.50;;;2.60;;
68144;SDS011;55400;51.824;-0.196;2023-11-21T16:08:46;4.10;;;1.60;;
68144;SDS011;55400;51.824;-0.196;2023-11-21T16:12:47;5.10;;;1.50;;
68144;SDS011;55400;51.824;-0.196;2023-11-21T16:16:46;6.10;;;1.90;;
68144;SDS011;55400;51.824;-0.196;2023-11-21T16:20:47;5.10;;;1.40;;
68144;SDS011;55400;51.824;-0.196;2023-11-21T16:24:46;3.70;;;1.20;;
68144;SDS011;55400;51.824;-0.196;2023-11-21T16:28:47;4.60;;;1.80;;
68144;SDS011;55400;51.824;-0.196;2023-11-21T16:32:46;5.90;;;1.50;;
68144;SDS011;55400;51.824;-0.196;2023-11-21T16:36:47;4.10;;;1.30;;
68144;SDS011;55400;51.824;-0.196;2023-11-21T16:40:47;4.00;;;1.50;;
68144;SDS011;55400;51.824;-0.196;2023-11-21T16:44:49;3.60;;;1.30;;
68144;SDS011;55400;51.824;-0.196;2023-11-21T16:48:46;3.10;;;1.50;;
68144;SDS011;55400;51.824;-0.196;2023-11-21T16:52:47;3.50;;;1.30;;
68144;SDS011;55400;51.824;-0.196;2023-11-21T16:56:46;7.70;;;2.00;;
68144;SDS011;55400;51.824;-0.196;2023-11-21T17:00:47;6.70;;;1.70;;
68144;SDS011;55400;51.824;-0.196;2023-11-21T17:04:48;6.20;;;1.70;;
68144;SDS011;55400;51.824;-0.196;2023-11-21T17:08:47;5.90;;;1.60;;
68144;SDS011;55400;51.824;-0.196;2023-11-21T17:12:47;6.00;;;2.20;;
68144;SDS011;55400;51.824;-0.196;2023-11-21T17:16:47;6.30;;;2.00;;
68144;SDS011;55400;51.824;-0.196;2023-11-21T17:20:47;7.80;;;1.60;;
68144;SDS011;55400;51.824;-0.196;2023-11-21T17:24:47;5.60;;;1.40;;
68144;SDS011;55400;51.824;-0.196;2023-11-21T17:28:47;6.40;;;1.70;;
68144;SDS011;55400;51.824;-0.196;2023-11-21T17:32:47;4.60;;;1.70;;
68144;SDS011;55400;51.824;-0.196;2023-11-21T17:36:47;4.90;;;1.50;;
68144;SDS011;55400;51.824;-0.196;2023-11-21T17:40:47;3.80;;;1.50;;
68144;SDS011;55400;51.824;-0.196;2023-11-21T17:44:47;4.40;;;1.50;;
68144;SDS011;55400;51.824;-0.196;2023-11-21T17:48:47;4.60;;;1.80;;
68144;SDS011;55400;51.824;-0.196;2023-11-21T17:52:47;5.20;;;1.70;;
68144;SDS011;55400;51.824;-0.196;2023-11-21T17:56:47;3.30;;;1.60;;
68144;SDS011;55400;51.824;-0.196;2023-11-21T18:00:47;3.40;;;1.70;;
68144;SDS011;55400;51.824;-0.196;2023-11-21T18:04:47;4.20;;;1.90;;
68144;SDS011;55400;51.824;-0.196;2023-11-21T18:08:47;3.10;;;1.40;;
68144;SDS011;55400;51.824;-0.196;2023-11-21T18:12:47;3.70;;;1.70;;
68144;SDS011;55400;51.824;-0.196;2023-11-21T18:16:47;3.90;;;1.80;;
68144;SDS011;55400;51.824;-0.196;2023-11-21T18:20:47;5.70;;;1.50;;
68144;SDS011;55400;51.824;-0.196;2023-11-21T18:24:47;3.90;;;1.60;;
68144;SDS011;55400;51.824;-0.196;2023-11-21T18:28:47;4.60;;;1.80;;
68144;SDS011;55400;51.824;-0.196;2023-11-21T18:32:47;3.90;;;1.70;;
68144;SDS011;55400;51.824;-0.196;2023-11-21T18:36:47;5.90;;;1.70;;
68144;SDS011;55400;51.824;-0.196;2023-11-21T18:40:47;4.20;;;1.70;;
68144;SDS011;55400;51.824;-0.196;2023-11-21T18:44:47;3.50;;;1.50;;
68144;SDS011;55400;51.824;-0.196;2023-11-21T18:48:47;4.50;;;1.50;;
68144;SDS011;55400;51.824;-0.196;2023-11-21T18:52:47;4.50;;;1.70;;
68144;SDS011;55400;51.824;-0.196;2023-11-21T18:56:47;5.00;;;1.90;;
68144;SDS011;55400;51.824;-0.196;2023-11-21T19:00:47;3.20;;;1.40;;
68144;SDS011;55400;51.824;-0.196;2023-11-21T19:04:47;6.00;;;1.60;;
68144;SDS011;55400;51.824;-0.196;2023-11-21T19:08:47;5.40;;;1.60;;
68144;SDS011;55400;51.824;-0.196;2023-11-21T19:12:47;4.60;;;1.70;;
68144;SDS011;55400;51.824;-0.196;2023-11-21T19:16:47;3.30;;;1.60;;
68144;SDS011;55400;51.824;-0.196;2023-11-21T19:20:47;4.00;;;1.50;;
68144;SDS011;55400;51.824;-0.196;2023-11-21T19:24:56;3.20;;;1.20;;
68144;SDS011;55400;51.824;-0.196;2023-11-21T19:28:47;4.40;;;1.40;;
68144;SDS011;55400;51.824;-0.196;2023-11-21T19:32:47;4.20;;;1.60;;
68144;SDS011;55400;51.824;-0.196;2023-11-21T19:36:47;4.40;;;1.60;;
68144;SDS011;55400;51.824;-0.196;2023-11-21T19:44:47;5.10;;;1.40;;
68144;SDS011;55400;51.824;-0.196;2023-11-21T19:48:47;3.40;;;1.60;;
68144;SDS011;55400;51.824;-0.196;2023-11-21T19:52:47;3.90;;;1.80;;
68144;SDS011;55400;51.824;-0.196;2023-11-21T19:56:47;4.30;;;1.70;;
68144;SDS011;55400;51.824;-0.196;2023-11-21T20:00:47;4.40;;;1.70;;
68144;SDS011;55400;51.824;-0.196;2023-11-21T20:04:47;4.20;;;1.80;;
68144;SDS011;55400;51.824;-0.196;2023-11-21T20:08:47;3.00;;;1.50;;
68144;SDS011;55400;51.824;-0.196;2023-11-21T20:12:47;4.10;;;1.70;;
68144;SDS011;55400;51.824;-0.196;2023-11-21T20:16:47;4.90;;;1.60;;
68144;SDS011;55400;51.824;-0.196;2023-11-21T20:24:47;4.30;;;1.70;;
68144;SDS011;55400;51.824;-0.196;2023-11-21T20:28:47;3.60;;;1.70;;
68144;SDS011;55400;51.824;-0.196;2023-11-21T20:32:48;3.80;;;1.60;;
68144;SDS011;55400;51.824;-0.196;2023-11-21T20:36:47;5.60;;;1.70;;
68144;SDS011;55400;51.824;-0.196;2023-11-21T20:40:47;4.70;;;1.80;;
68144;SDS011;55400;51.824;-0.196;2023-11-21T20:48:47;3.90;;;1.90;;
68144;SDS011;55400;51.824;-0.196;2023-11-21T20:52:47;8.30;;;2.10;;
68144;SDS011;55400;51.824;-0.196;2023-11-21T20:56:48;5.30;;;1.70;;
68144;SDS011;55400;51.824;-0.196;2023-11-21T21:00:47;5.50;;;2.10;;
68144;SDS011;55400;51.824;-0.196;2023-11-21T21:04:47;6.40;;;1.70;;
68144;SDS011;55400;51.824;-0.196;2023-11-21T21:08:47;4.20;;;1.60;;
68144;SDS011;55400;51.824;-0.196;2023-11-21T21:12:47;3.20;;;1.60;;
68144;SDS011;55400;51.824;-0.196;2023-11-21T21:16:47;4.80;;;1.90;;
68144;SDS011;55400;51.824;-0.196;2023-11-21T21:20:47;4.70;;;1.80;;
68144;SDS011;55400;51.824;-0.196;2023-11-21T21:24:47;5.00;;;2.20;;
68144;SDS011;55400;51.824;-0.196;2023-11-21T21:28:47;4.40;;;1.80;;
68144;SDS011;55400;51.824;-0.196;2023-11-21T21:32:47;3.70;;;1.70;;
68144;SDS011;55400;51.824;-0.196;2023-11-21T21:36:48;2.70;;;1.70;;
68144;SDS011;55400;51.824;-0.196;2023-11-21T21:40:48;3.90;;;1.40;;
68144;SDS011;55400;51.824;-0.196;2023-11-21T21:44:47;3.00;;;1.80;;
68144;SDS011;55400;51.824;-0.196;2023-11-21T21:48:47;2.90;;;1.70;;
68144;SDS011;55400;51.824;-0.196;2023-11-21T21:52:48;5.20;;;2.00;;
68144;SDS011;55400;51.824;-0.196;2023-11-21T21:56:47;4.70;;;1.80;;
68144;SDS011;55400;51.824;-0.196;2023-11-21T22:00:48;5.20;;;2.20;;
68144;SDS011;55400;51.824;-0.196;2023-11-21T22:04:47;5.30;;;1.80;;
68144;SDS011;55400;51.824;-0.196;2023-11-21T22:08:47;5.10;;;2.00;;
68144;SDS011;55400;51.824;-0.196;2023-11-21T22:12:47;4.90;;;1.60;;
68144;SDS011;55400;51.824;-0.196;2023-11-21T22:16:48;3.30;;;1.60;;
68144;SDS011;55400;51.824;-0.196;2023-11-21T22:20:47;4.50;;;1.50;;
68144;SDS011;55400;51.824;-0.196;2023-11-21T22:24:47;3.60;;;1.50;;
68144;SDS011;55400;51.824;-0.196;2023-11-21T22:28:47;4.40;;;1.90;;
68144;SDS011;55400;51.824;-0.196;2023-11-21T22:32:47;4.00;;;1.70;;
68144;SDS011;55400;51.824;-0.196;2023-11-21T22:36:47;3.50;;;1.60;;
68144;SDS011;55400;51.824;-0.196;2023-11-21T22:40:48;5.70;;;1.80;;
68144;SDS011;55400;51.824;-0.196;2023-11-21T22:44:47;6.50;;;1.50;;
68144;SDS011;55400;51.824;-0.196;2023-11-21T22:48:48;4.00;;;1.50;;
68144;SDS011;55400;51.824;-0.196;2023-11-21T22:52:47;2.80;;;1.50;;
68144;SDS011;55400;51.824;-0.196;2023-11-21T22:56:48;3.50;;;1.60;;
68144;SDS011;55400;51.824;-0.196;2023-11-21T23:00:47;4.20;;;1.50;;
68144;SDS011;55400;51.824;-0.196;2023-11-21T23:04:48;2.60;;;1.20;;
68144;SDS011;55400;51.824;-0.196;2023-11-21T23:08:48;2.70;;;1.40;;
68144;SDS011;55400;51.824;-0.196;2023-11-21T23:12:48;3.30;;;1.50;;
68144;SDS011;55400;51.824;-0.196;2023-11-21T23:16:48;5.20;;;1.80;;
68144;SDS011;55400;51.824;-0.196;2023-11-21T23:20:48;5.80;;;1.80;;
68144;SDS011;55400;51.824;-0.196;2023-11-21T23:24:48;5.50;;;1.60;;
68144;SDS011;55400;51.824;-0.196;2023-11-21T23:28:48;3.20;;;1.30;;
68144;SDS011;55400;51.824;-0.196;2023-11-21T23:32:48;3.80;;;1.70;;
68144;SDS011;55400;51.824;-0.196;2023-11-21T23:40:48;2.40;;;1.50;;
68144;SDS011;55400;51.824;-0.196;2023-11-21T23:44:48;4.00;;;1.30;;
68144;SDS011;55400;51.824;-0.196;2023-11-21T23:48:48;4.80;;;1.60;;
68144;SDS011;55400;51.824;-0.196;2023-11-21T23:52:48;1.10;;;1.00;;
68144;SDS011;55400;51.824;-0.196;2023-11-21T23:56:48;3.90;;;1.50;;
